Rapid City, Michigan
Current Conditions -  °F | °C
As of 9:55 PM on Monday 22 Dec 2014 (Local Time) from KACB Reporting Station
Light Snow Light Snow  
Wind Chill: 32°   Ceiling: 3500
Heat Index: 32°   Visibility: 4mi
Dew Point: 28°   Wind: 3mph
Humidity: 83%   Direction: 100°E
Pressure: 29.91"   Gusts: NA
Location:  44.83°N, 85.28°W
Report Text: KACB 230255Z AUTO 10003KT 4SM -SN OVC035 00/M02 A2991 RMK AO2 T00021023
Loading
Personal Weather Stations






























Interactive Weather Map New forecast layout! Learn more

10-Day Weather Forecast

Advertisements
Track Severe Weather on mobile